sensor_id;sensor_type;location;lat;lon;timestamp;P1;durP1;ratioP1;P2;durP2;ratioP2
11531;SDS011;5822;51.000;5.874;2023-02-28T00:01:09;21.80;;;20.50;;
11531;SDS011;5822;51.000;5.874;2023-02-28T00:03:35;22.15;;;20.85;;
11531;SDS011;5822;51.000;5.874;2023-02-28T00:06:02;21.00;;;19.70;;
11531;SDS011;5822;51.000;5.874;2023-02-28T00:08:29;20.40;;;19.10;;
11531;SDS011;5822;51.000;5.874;2023-02-28T00:10:54;20.33;;;19.13;;
11531;SDS011;5822;51.000;5.874;2023-02-28T00:13:20;22.25;;;20.95;;
11531;SDS011;5822;51.000;5.874;2023-02-28T00:15:46;21.07;;;19.77;;
11531;SDS011;5822;51.000;5.874;2023-02-28T00:18:11;21.20;;;20.00;;
11531;SDS011;5822;51.000;5.874;2023-02-28T00:20:38;22.20;;;20.90;;
11531;SDS011;5822;51.000;5.874;2023-02-28T00:23:03;22.10;;;20.70;;
11531;SDS011;5822;51.000;5.874;2023-02-28T00:25:29;21.43;;;20.10;;
11531;SDS011;5822;51.000;5.874;2023-02-28T00:27:55;21.10;;;19.80;;
11531;SDS011;5822;51.000;5.874;2023-02-28T00:30:21;22.00;;;20.60;;
11531;SDS011;5822;51.000;5.874;2023-02-28T00:32:48;21.70;;;20.30;;
11531;SDS011;5822;51.000;5.874;2023-02-28T00:35:14;22.85;;;21.55;;
11531;SDS011;5822;51.000;5.874;2023-02-28T00:37:41;24.15;;;22.75;;
11531;SDS011;5822;51.000;5.874;2023-02-28T00:40:07;24.10;;;22.70;;
11531;SDS011;5822;51.000;5.874;2023-02-28T00:42:34;23.77;;;22.40;;
11531;SDS011;5822;51.000;5.874;2023-02-28T00:45:00;21.17;;;19.87;;
11531;SDS011;5822;51.000;5.874;2023-02-28T00:47:28;21.23;;;19.92;;
11531;SDS011;5822;51.000;5.874;2023-02-28T00:49:54;21.30;;;20.00;;
11531;SDS011;5822;51.000;5.874;2023-02-28T00:52:19;23.20;;;21.80;;
11531;SDS011;5822;51.000;5.874;2023-02-28T00:54:46;23.38;;;21.98;;
11531;SDS011;5822;51.000;5.874;2023-02-28T00:57:12;23.23;;;21.83;;
11531;SDS011;5822;51.000;5.874;2023-02-28T00:59:37;25.38;;;23.83;;
11531;SDS011;5822;51.000;5.874;2023-02-28T01:02:03;22.50;;;21.10;;
11531;SDS011;5822;51.000;5.874;2023-02-28T01:04:28;22.17;;;20.88;;
11531;SDS011;5822;51.000;5.874;2023-02-28T01:06:54;22.63;;;21.23;;
11531;SDS011;5822;51.000;5.874;2023-02-28T01:09:20;26.75;;;25.25;;
11531;SDS011;5822;51.000;5.874;2023-02-28T01:11:45;45.07;;;42.87;;
11531;SDS011;5822;51.000;5.874;2023-02-28T01:14:15;37.67;;;35.77;;
11531;SDS011;5822;51.000;5.874;2023-02-28T01:16:41;34.22;;;32.53;;
11531;SDS011;5822;51.000;5.874;2023-02-28T01:19:07;28.75;;;27.25;;
11531;SDS011;5822;51.000;5.874;2023-02-28T01:21:32;22.52;;;21.23;;
11531;SDS011;5822;51.000;5.874;2023-02-28T01:23:59;22.35;;;21.00;;
11531;SDS011;5822;51.000;5.874;2023-02-28T01:26:25;21.83;;;20.52;;
11531;SDS011;5822;51.000;5.874;2023-02-28T01:28:51;25.13;;;23.73;;
11531;SDS011;5822;51.000;5.874;2023-02-28T01:31:18;21.47;;;20.17;;
11531;SDS011;5822;51.000;5.874;2023-02-28T01:33:45;20.77;;;19.47;;
11531;SDS011;5822;51.000;5.874;2023-02-28T01:36:16;21.02;;;19.80;;
11531;SDS011;5822;51.000;5.874;2023-02-28T01:38:43;21.50;;;20.20;;
11531;SDS011;5822;51.000;5.874;2023-02-28T01:41:12;21.60;;;20.30;;
11531;SDS011;5822;51.000;5.874;2023-02-28T01:46:10;21.33;;;20.07;;
11531;SDS011;5822;51.000;5.874;2023-02-28T01:48:38;21.65;;;20.33;;
11531;SDS011;5822;51.000;5.874;2023-02-28T01:51:15;21.50;;;20.20;;
11531;SDS011;5822;51.000;5.874;2023-02-28T01:53:44;21.42;;;20.13;;
11531;SDS011;5822;51.000;5.874;2023-02-28T01:56:13;21.65;;;20.35;;
11531;SDS011;5822;51.000;5.874;2023-02-28T01:58:46;21.73;;;20.42;;
11531;SDS011;5822;51.000;5.874;2023-02-28T02:01:16;21.10;;;19.80;;
11531;SDS011;5822;51.000;5.874;2023-02-28T02:04:04;21.30;;;20.00;;
11531;SDS011;5822;51.000;5.874;2023-02-28T02:06:33;21.45;;;20.15;;
11531;SDS011;5822;51.000;5.874;2023-02-28T02:09:05;20.73;;;19.52;;
11531;SDS011;5822;51.000;5.874;2023-02-28T02:11:31;21.23;;;19.92;;
11531;SDS011;5822;51.000;5.874;2023-02-28T02:19:51;21.95;;;20.65;;
11531;SDS011;5822;51.000;5.874;2023-02-28T02:23:07;22.13;;;20.73;;
11531;SDS011;5822;51.000;5.874;2023-02-28T02:25:52;21.53;;;20.23;;
11531;SDS011;5822;51.000;5.874;2023-02-28T02:40:22;21.93;;;20.63;;
11531;SDS011;5822;51.000;5.874;2023-02-28T02:42:28;22.35;;;20.95;;
11531;SDS011;5822;51.000;5.874;2023-02-28T02:45:05;21.58;;;20.27;;
11531;SDS011;5822;51.000;5.874;2023-02-28T02:47:35;21.70;;;20.40;;
11531;SDS011;5822;51.000;5.874;2023-02-28T02:50:04;21.45;;;20.15;;
11531;SDS011;5822;51.000;5.874;2023-02-28T02:52:37;21.40;;;20.10;;
11531;SDS011;5822;51.000;5.874;2023-02-28T02:55:10;21.23;;;19.92;;
11531;SDS011;5822;51.000;5.874;2023-02-28T02:57:40;21.50;;;20.20;;
11531;SDS011;5822;51.000;5.874;2023-02-28T03:00:12;21.17;;;19.88;;
11531;SDS011;5822;51.000;5.874;2023-02-28T03:02:39;20.90;;;19.70;;
11531;SDS011;5822;51.000;5.874;2023-02-28T03:05:13;21.10;;;19.80;;
11531;SDS011;5822;51.000;5.874;2023-02-28T03:07:43;21.08;;;19.80;;
11531;SDS011;5822;51.000;5.874;2023-02-28T03:10:25;21.33;;;20.02;;
11531;SDS011;5822;51.000;5.874;2023-02-28T03:21:55;22.08;;;20.77;;
11531;SDS011;5822;51.000;5.874;2023-02-28T03:27:26;21.92;;;20.63;;
11531;SDS011;5822;51.000;5.874;2023-02-28T03:29:58;22.02;;;20.73;;
11531;SDS011;5822;51.000;5.874;2023-02-28T03:32:58;22.33;;;20.92;;
11531;SDS011;5822;51.000;5.874;2023-02-28T03:35:34;22.27;;;20.98;;
11531;SDS011;5822;51.000;5.874;2023-02-28T03:40:47;21.85;;;20.55;;
11531;SDS011;5822;51.000;5.874;2023-02-28T03:43:21;22.23;;;20.88;;
11531;SDS011;5822;51.000;5.874;2023-02-28T03:45:49;21.70;;;20.40;;
11531;SDS011;5822;51.000;5.874;2023-02-28T03:48:21;21.90;;;20.60;;
11531;SDS011;5822;51.000;5.874;2023-02-28T03:50:59;21.88;;;20.58;;
11531;SDS011;5822;51.000;5.874;2023-02-28T03:53:35;21.75;;;20.50;;
11531;SDS011;5822;51.000;5.874;2023-02-28T03:56:14;22.15;;;20.83;;
11531;SDS011;5822;51.000;5.874;2023-02-28T03:59:00;21.83;;;20.52;;
11531;SDS011;5822;51.000;5.874;2023-02-28T04:01:32;22.25;;;20.85;;
11531;SDS011;5822;51.000;5.874;2023-02-28T04:04:06;21.43;;;20.13;;
11531;SDS011;5822;51.000;5.874;2023-02-28T04:06:33;21.70;;;20.40;;
11531;SDS011;5822;51.000;5.874;2023-02-28T04:08:59;21.17;;;19.98;;
11531;SDS011;5822;51.000;5.874;2023-02-28T04:11:36;21.77;;;20.48;;
11531;SDS011;5822;51.000;5.874;2023-02-28T04:14:06;20.65;;;19.45;;
11531;SDS011;5822;51.000;5.874;2023-02-28T04:16:34;20.77;;;19.58;;
11531;SDS011;5822;51.000;5.874;2023-02-28T04:19:02;20.48;;;19.27;;
11531;SDS011;5822;51.000;5.874;2023-02-28T04:21:37;21.70;;;20.30;;
11531;SDS011;5822;51.000;5.874;2023-02-28T04:24:04;20.55;;;19.35;;
11531;SDS011;5822;51.000;5.874;2023-02-28T04:26:34;20.70;;;19.50;;
11531;SDS011;5822;51.000;5.874;2023-02-28T04:29:03;21.08;;;19.77;;
11531;SDS011;5822;51.000;5.874;2023-02-28T04:31:30;21.60;;;20.20;;
11531;SDS011;5822;51.000;5.874;2023-02-28T04:33:55;21.13;;;19.83;;
11531;SDS011;5822;51.000;5.874;2023-02-28T04:36:21;21.05;;;19.75;;
11531;SDS011;5822;51.000;5.874;2023-02-28T04:38:48;22.30;;;20.90;;
11531;SDS011;5822;51.000;5.874;2023-02-28T04:41:14;21.65;;;20.27;;
11531;SDS011;5822;51.000;5.874;2023-02-28T04:43:40;21.98;;;20.67;;
11531;SDS011;5822;51.000;5.874;2023-02-28T04:46:07;21.93;;;20.53;;
11531;SDS011;5822;51.000;5.874;2023-02-28T04:48:34;21.27;;;19.97;;
11531;SDS011;5822;51.000;5.874;2023-02-28T04:51:02;21.10;;;19.80;;
11531;SDS011;5822;51.000;5.874;2023-02-28T04:53:28;21.20;;;19.90;;
11531;SDS011;5822;51.000;5.874;2023-02-28T04:55:54;21.70;;;20.40;;
11531;SDS011;5822;51.000;5.874;2023-02-28T04:58:20;21.30;;;20.00;;
11531;SDS011;5822;51.000;5.874;2023-02-28T05:00:48;20.85;;;19.65;;
11531;SDS011;5822;51.000;5.874;2023-02-28T05:03:14;21.65;;;20.35;;
11531;SDS011;5822;51.000;5.874;2023-02-28T05:05:40;21.65;;;20.25;;
11531;SDS011;5822;51.000;5.874;2023-02-28T05:08:05;21.48;;;20.17;;
11531;SDS011;5822;51.000;5.874;2023-02-28T05:10:31;22.00;;;20.60;;
11531;SDS011;5822;51.000;5.874;2023-02-28T05:12:57;22.27;;;20.87;;
11531;SDS011;5822;51.000;5.874;2023-02-28T05:15:23;22.65;;;21.25;;
11531;SDS011;5822;51.000;5.874;2023-02-28T05:17:49;23.02;;;21.52;;
11531;SDS011;5822;51.000;5.874;2023-02-28T05:20:15;23.17;;;21.67;;
11531;SDS011;5822;51.000;5.874;2023-02-28T05:22:41;23.58;;;22.08;;
11531;SDS011;5822;51.000;5.874;2023-02-28T05:25:12;22.77;;;21.38;;
11531;SDS011;5822;51.000;5.874;2023-02-28T05:27:41;22.95;;;21.45;;
11531;SDS011;5822;51.000;5.874;2023-02-28T05:30:07;22.80;;;21.30;;
11531;SDS011;5822;51.000;5.874;2023-02-28T05:32:35;22.30;;;20.90;;
11531;SDS011;5822;51.000;5.874;2023-02-28T05:35:02;22.13;;;20.73;;
11531;SDS011;5822;51.000;5.874;2023-02-28T05:37:28;22.20;;;20.80;;
11531;SDS011;5822;51.000;5.874;2023-02-28T05:39:54;22.03;;;20.63;;
11531;SDS011;5822;51.000;5.874;2023-02-28T05:42:19;21.60;;;20.20;;
11531;SDS011;5822;51.000;5.874;2023-02-28T05:44:45;21.10;;;19.80;;
11531;SDS011;5822;51.000;5.874;2023-02-28T05:47:11;21.00;;;19.70;;
11531;SDS011;5822;51.000;5.874;2023-02-28T05:49:40;22.90;;;21.40;;
11531;SDS011;5822;51.000;5.874;2023-02-28T05:52:06;23.23;;;21.73;;
11531;SDS011;5822;51.000;5.874;2023-02-28T05:54:32;23.05;;;21.55;;
11531;SDS011;5822;51.000;5.874;2023-02-28T05:56:57;21.77;;;20.38;;
11531;SDS011;5822;51.000;5.874;2023-02-28T05:59:23;22.25;;;20.75;;
11531;SDS011;5822;51.000;5.874;2023-02-28T06:01:49;22.33;;;20.83;;
11531;SDS011;5822;51.000;5.874;2023-02-28T06:04:16;22.13;;;20.63;;
11531;SDS011;5822;51.000;5.874;2023-02-28T06:06:47;22.05;;;20.55;;
11531;SDS011;5822;51.000;5.874;2023-02-28T06:09:13;21.80;;;20.40;;
11531;SDS011;5822;51.000;5.874;2023-02-28T06:11:40;23.10;;;21.50;;
11531;SDS011;5822;51.000;5.874;2023-02-28T06:14:06;22.77;;;21.27;;
11531;SDS011;5822;51.000;5.874;2023-02-28T06:16:33;23.00;;;21.48;;
11531;SDS011;5822;51.000;5.874;2023-02-28T06:19:00;22.83;;;21.33;;
11531;SDS011;5822;51.000;5.874;2023-02-28T06:21:27;23.05;;;21.55;;
11531;SDS011;5822;51.000;5.874;2023-02-28T06:23:53;22.58;;;21.10;;
11531;SDS011;5822;51.000;5.874;2023-02-28T06:26:20;22.38;;;20.88;;
11531;SDS011;5822;51.000;5.874;2023-02-28T06:28:46;21.70;;;20.30;;
11531;SDS011;5822;51.000;5.874;2023-02-28T06:31:13;22.30;;;20.80;;
11531;SDS011;5822;51.000;5.874;2023-02-28T06:33:40;21.60;;;20.10;;
11531;SDS011;5822;51.000;5.874;2023-02-28T06:36:07;21.23;;;19.83;;
11531;SDS011;5822;51.000;5.874;2023-02-28T06:38:34;21.27;;;19.88;;
11531;SDS011;5822;51.000;5.874;2023-02-28T06:41:00;21.83;;;20.33;;
11531;SDS011;5822;51.000;5.874;2023-02-28T06:43:31;21.75;;;20.35;;
11531;SDS011;5822;51.000;5.874;2023-02-28T06:45:59;21.90;;;20.40;;
11531;SDS011;5822;51.000;5.874;2023-02-28T06:48:26;20.60;;;19.30;;
11531;SDS011;5822;51.000;5.874;2023-02-28T06:50:52;20.52;;;19.23;;
11531;SDS011;5822;51.000;5.874;2023-02-28T06:53:26;19.88;;;18.58;;
11531;SDS011;5822;51.000;5.874;2023-02-28T06:55:51;20.00;;;18.80;;
11531;SDS011;5822;51.000;5.874;2023-02-28T06:58:17;19.70;;;18.50;;
11531;SDS011;5822;51.000;5.874;2023-02-28T07:00:44;20.10;;;18.80;;
11531;SDS011;5822;51.000;5.874;2023-02-28T07:03:10;19.75;;;18.55;;
11531;SDS011;5822;51.000;5.874;2023-02-28T07:05:38;19.92;;;18.73;;
11531;SDS011;5822;51.000;5.874;2023-02-28T07:08:04;21.00;;;19.80;;
11531;SDS011;5822;51.000;5.874;2023-02-28T07:10:31;22.00;;;20.80;;
11531;SDS011;5822;51.000;5.874;2023-02-28T07:12:57;24.63;;;23.33;;
11531;SDS011;5822;51.000;5.874;2023-02-28T07:15:23;32.05;;;30.55;;
11531;SDS011;5822;51.000;5.874;2023-02-28T07:17:49;36.80;;;35.10;;
11531;SDS011;5822;51.000;5.874;2023-02-28T07:20:15;38.53;;;36.73;;
11531;SDS011;5822;51.000;5.874;2023-02-28T07:22:41;37.80;;;36.10;;
11531;SDS011;5822;51.000;5.874;2023-02-28T07:25:07;33.37;;;31.77;;
11531;SDS011;5822;51.000;5.874;2023-02-28T07:27:33;34.80;;;33.20;;
11531;SDS011;5822;51.000;5.874;2023-02-28T07:29:59;36.50;;;34.80;;
11531;SDS011;5822;51.000;5.874;2023-02-28T07:32:26;35.42;;;33.83;;
11531;SDS011;5822;51.000;5.874;2023-02-28T07:34:53;34.17;;;32.58;;
11531;SDS011;5822;51.000;5.874;2023-02-28T07:37:19;35.45;;;33.85;;
11531;SDS011;5822;51.000;5.874;2023-02-28T07:39:44;36.83;;;35.13;;
11531;SDS011;5822;51.000;5.874;2023-02-28T07:42:10;34.47;;;32.87;;
11531;SDS011;5822;51.000;5.874;2023-02-28T07:44:37;34.38;;;32.78;;
11531;SDS011;5822;51.000;5.874;2023-02-28T07:47:09;28.27;;;26.88;;
11531;SDS011;5822;51.000;5.874;2023-02-28T07:49:38;29.03;;;27.53;;
11531;SDS011;5822;51.000;5.874;2023-02-28T07:52:07;24.10;;;22.90;;
11531;SDS011;5822;51.000;5.874;2023-02-28T07:54:32;22.50;;;21.40;;
11531;SDS011;5822;51.000;5.874;2023-02-28T07:56:59;22.77;;;21.58;;
11531;SDS011;5822;51.000;5.874;2023-02-28T07:59:24;27.67;;;26.38;;
11531;SDS011;5822;51.000;5.874;2023-02-28T08:01:50;28.80;;;27.40;;
11531;SDS011;5822;51.000;5.874;2023-02-28T08:04:17;31.10;;;29.60;;
11531;SDS011;5822;51.000;5.874;2023-02-28T08:06:43;32.65;;;31.05;;
11531;SDS011;5822;51.000;5.874;2023-02-28T08:09:08;32.67;;;31.17;;
11531;SDS011;5822;51.000;5.874;2023-02-28T08:11:34;31.88;;;30.38;;
11531;SDS011;5822;51.000;5.874;2023-02-28T08:14:01;38.55;;;36.75;;
11531;SDS011;5822;51.000;5.874;2023-02-28T08:16:27;38.70;;;36.90;;
11531;SDS011;5822;51.000;5.874;2023-02-28T08:18:52;34.37;;;32.77;;
11531;SDS011;5822;51.000;5.874;2023-02-28T08:21:18;33.65;;;32.05;;
11531;SDS011;5822;51.000;5.874;2023-02-28T08:23:49;32.63;;;31.02;;
11531;SDS011;5822;51.000;5.874;2023-02-28T08:26:16;35.17;;;33.47;;
11531;SDS011;5822;51.000;5.874;2023-02-28T08:28:42;41.40;;;39.50;;
11531;SDS011;5822;51.000;5.874;2023-02-28T08:31:09;44.22;;;42.20;;
11531;SDS011;5822;51.000;5.874;2023-02-28T08:33:36;36.85;;;35.15;;
11531;SDS011;5822;51.000;5.874;2023-02-28T08:36:04;40.20;;;38.30;;
11531;SDS011;5822;51.000;5.874;2023-02-28T08:38:30;40.83;;;38.92;;
11531;SDS011;5822;51.000;5.874;2023-02-28T08:41:00;35.85;;;34.15;;
11531;SDS011;5822;51.000;5.874;2023-02-28T08:43:27;32.88;;;31.27;;
11531;SDS011;5822;51.000;5.874;2023-02-28T08:45:54;31.60;;;30.00;;
11531;SDS011;5822;51.000;5.874;2023-02-28T08:48:23;26.80;;;25.40;;
11531;SDS011;5822;51.000;5.874;2023-02-28T08:51:03;26.42;;;25.02;;
11531;SDS011;5822;51.000;5.874;2023-02-28T08:53:31;29.70;;;28.20;;
11531;SDS011;5822;51.000;5.874;2023-02-28T08:56:00;24.27;;;23.05;;
11531;SDS011;5822;51.000;5.874;2023-02-28T08:58:28;26.88;;;25.58;;
11531;SDS011;5822;51.000;5.874;2023-02-28T09:00:54;32.50;;;30.93;;
11531;SDS011;5822;51.000;5.874;2023-02-28T09:03:20;29.67;;;28.27;;
11531;SDS011;5822;51.000;5.874;2023-02-28T09:05:57;30.98;;;29.48;;
11531;SDS011;5822;51.000;5.874;2023-02-28T09:08:25;32.75;;;31.15;;
11531;SDS011;5822;51.000;5.874;2023-02-28T09:10:52;34.92;;;33.33;;
11531;SDS011;5822;51.000;5.874;2023-02-28T09:13:19;34.47;;;32.88;;
11531;SDS011;5822;51.000;5.874;2023-02-28T09:15:45;33.38;;;31.83;;
11531;SDS011;5822;51.000;5.874;2023-02-28T09:18:11;31.30;;;29.80;;
11531;SDS011;5822;51.000;5.874;2023-02-28T09:20:38;31.98;;;30.48;;
11531;SDS011;5822;51.000;5.874;2023-02-28T09:23:05;31.53;;;30.03;;
11531;SDS011;5822;51.000;5.874;2023-02-28T09:25:31;29.80;;;28.40;;
11531;SDS011;5822;51.000;5.874;2023-02-28T09:27:56;31.88;;;30.38;;
11531;SDS011;5822;51.000;5.874;2023-02-28T09:30:22;31.80;;;30.30;;
11531;SDS011;5822;51.000;5.874;2023-02-28T09:32:48;32.53;;;31.02;;
11531;SDS011;5822;51.000;5.874;2023-02-28T09:35:23;32.33;;;30.83;;
11531;SDS011;5822;51.000;5.874;2023-02-28T09:37:50;30.38;;;28.95;;
11531;SDS011;5822;51.000;5.874;2023-02-28T09:40:17;32.60;;;31.10;;
11531;SDS011;5822;51.000;5.874;2023-02-28T09:42:49;32.65;;;31.15;;
11531;SDS011;5822;51.000;5.874;2023-02-28T09:45:33;31.15;;;29.65;;
11531;SDS011;5822;51.000;5.874;2023-02-28T09:48:25;33.35;;;31.80;;
11531;SDS011;5822;51.000;5.874;2023-02-28T09:50:51;33.30;;;31.70;;
11531;SDS011;5822;51.000;5.874;2023-02-28T09:53:28;31.08;;;29.63;;
11531;SDS011;5822;51.000;5.874;2023-02-28T10:01:39;31.73;;;30.23;;
11531;SDS011;5822;51.000;5.874;2023-02-28T10:07:10;34.50;;;32.85;;
11531;SDS011;5822;51.000;5.874;2023-02-28T10:09:56;30.77;;;29.27;;
11531;SDS011;5822;51.000;5.874;2023-02-28T10:12:26;26.92;;;25.63;;
11531;SDS011;5822;51.000;5.874;2023-02-28T10:14:54;27.27;;;25.98;;
11531;SDS011;5822;51.000;5.874;2023-02-28T10:17:27;26.33;;;25.02;;
11531;SDS011;5822;51.000;5.874;2023-02-28T10:20:07;27.42;;;26.08;;
11531;SDS011;5822;51.000;5.874;2023-02-28T10:25:20;24.77;;;23.58;;
11531;SDS011;5822;51.000;5.874;2023-02-28T10:27:48;27.25;;;25.95;;
11531;SDS011;5822;51.000;5.874;2023-02-28T10:30:18;25.05;;;23.85;;
11531;SDS011;5822;51.000;5.874;2023-02-28T10:32:50;24.83;;;23.63;;
11531;SDS011;5822;51.000;5.874;2023-02-28T10:35:22;23.52;;;22.42;;
11531;SDS011;5822;51.000;5.874;2023-02-28T10:37:55;25.00;;;23.80;;
11531;SDS011;5822;51.000;5.874;2023-02-28T10:40:43;24.10;;;22.90;;
11531;SDS011;5822;51.000;5.874;2023-02-28T10:45:37;24.10;;;22.90;;
11531;SDS011;5822;51.000;5.874;2023-02-28T10:50:36;24.45;;;23.25;;
11531;SDS011;5822;51.000;5.874;2023-02-28T10:58:48;23.70;;;22.60;;
11531;SDS011;5822;51.000;5.874;2023-02-28T11:03:48;24.00;;;22.80;;
11531;SDS011;5822;51.000;5.874;2023-02-28T11:06:17;23.52;;;22.33;;
11531;SDS011;5822;51.000;5.874;2023-02-28T11:08:50;21.63;;;20.52;;
11531;SDS011;5822;51.000;5.874;2023-02-28T11:11:19;22.40;;;21.30;;
11531;SDS011;5822;51.000;5.874;2023-02-28T11:13:48;22.70;;;21.60;;
11531;SDS011;5822;51.000;5.874;2023-02-28T11:16:17;21.83;;;20.73;;
11531;SDS011;5822;51.000;5.874;2023-02-28T11:18:50;22.27;;;21.17;;
11531;SDS011;5822;51.000;5.874;2023-02-28T11:21:24;22.17;;;21.08;;
11531;SDS011;5822;51.000;5.874;2023-02-28T11:23:56;22.13;;;21.02;;
11531;SDS011;5822;51.000;5.874;2023-02-28T11:26:44;20.43;;;19.43;;
11531;SDS011;5822;51.000;5.874;2023-02-28T11:29:27;20.33;;;19.33;;
11531;SDS011;5822;51.000;5.874;2023-02-28T11:34:38;19.00;;;18.00;;
11531;SDS011;5822;51.000;5.874;2023-02-28T11:37:05;20.80;;;19.70;;
11531;SDS011;5822;51.000;5.874;2023-02-28T11:39:40;21.65;;;20.55;;
11531;SDS011;5822;51.000;5.874;2023-02-28T11:42:23;22.33;;;21.23;;
11531;SDS011;5822;51.000;5.874;2023-02-28T11:50:22;22.08;;;20.98;;
11531;SDS011;5822;51.000;5.874;2023-02-28T11:55:55;22.15;;;20.95;;
11531;SDS011;5822;51.000;5.874;2023-02-28T12:06:53;23.13;;;21.92;;
11531;SDS011;5822;51.000;5.874;2023-02-28T12:09:38;23.23;;;22.02;;
11531;SDS011;5822;51.000;5.874;2023-02-28T12:18:42;22.50;;;21.30;;
11531;SDS011;5822;51.000;5.874;2023-02-28T12:26:19;23.87;;;22.67;;
11531;SDS011;5822;51.000;5.874;2023-02-28T12:29:02;22.67;;;21.58;;
11531;SDS011;5822;51.000;5.874;2023-02-28T12:31:36;22.33;;;21.20;;
11531;SDS011;5822;51.000;5.874;2023-02-28T12:34:08;22.30;;;21.20;;
11531;SDS011;5822;51.000;5.874;2023-02-28T12:36:37;21.55;;;20.45;;
11531;SDS011;5822;51.000;5.874;2023-02-28T12:44:39;22.30;;;21.20;;
11531;SDS011;5822;51.000;5.874;2023-02-28T12:47:13;21.92;;;20.83;;
11531;SDS011;5822;51.000;5.874;2023-02-28T12:49:52;22.02;;;20.92;;
11531;SDS011;5822;51.000;5.874;2023-02-28T12:52:25;21.55;;;20.45;;
11531;SDS011;5822;51.000;5.874;2023-02-28T13:00:25;21.42;;;20.33;;
11531;SDS011;5822;51.000;5.874;2023-02-28T13:06:03;22.50;;;21.40;;
11531;SDS011;5822;51.000;5.874;2023-02-28T13:11:23;20.70;;;19.60;;
11531;SDS011;5822;51.000;5.874;2023-02-28T13:13:56;20.77;;;19.67;;
11531;SDS011;5822;51.000;5.874;2023-02-28T13:16:24;20.13;;;19.13;;
11531;SDS011;5822;51.000;5.874;2023-02-28T13:18:49;18.50;;;17.50;;
11531;SDS011;5822;51.000;5.874;2023-02-28T13:21:28;19.30;;;18.30;;
11531;SDS011;5822;51.000;5.874;2023-02-28T13:27:10;20.08;;;19.08;;
11531;SDS011;5822;51.000;5.874;2023-02-28T13:34:41;20.95;;;19.85;;
11531;SDS011;5822;51.000;5.874;2023-02-28T13:58:50;20.05;;;18.95;;
11531;SDS011;5822;51.000;5.874;2023-02-28T14:06:54;20.80;;;19.70;;
11531;SDS011;5822;51.000;5.874;2023-02-28T14:09:38;19.67;;;18.58;;
11531;SDS011;5822;51.000;5.874;2023-02-28T14:18:18;18.93;;;17.93;;
11531;SDS011;5822;51.000;5.874;2023-02-28T14:24:13;20.13;;;19.02;;
11531;SDS011;5822;51.000;5.874;2023-02-28T14:32:47;24.58;;;22.98;;
11531;SDS011;5822;51.000;5.874;2023-02-28T14:38:33;21.77;;;20.57;;
11531;SDS011;5822;51.000;5.874;2023-02-28T14:41:12;22.00;;;20.70;;
11531;SDS011;5822;51.000;5.874;2023-02-28T14:43:57;22.42;;;21.13;;
11531;SDS011;5822;51.000;5.874;2023-02-28T14:46:28;20.67;;;19.48;;
11531;SDS011;5822;51.000;5.874;2023-02-28T14:49:03;19.80;;;18.70;;
11531;SDS011;5822;51.000;5.874;2023-02-28T14:51:37;21.30;;;20.10;;
11531;SDS011;5822;51.000;5.874;2023-02-28T14:54:03;21.67;;;20.48;;
11531;SDS011;5822;51.000;5.874;2023-02-28T14:56:37;21.08;;;19.98;;
11531;SDS011;5822;51.000;5.874;2023-02-28T14:59:04;20.50;;;19.40;;
11531;SDS011;5822;51.000;5.874;2023-02-28T15:01:31;21.13;;;19.92;;
11531;SDS011;5822;51.000;5.874;2023-02-28T15:04:02;22.33;;;21.02;;
11531;SDS011;5822;51.000;5.874;2023-02-28T15:06:29;21.63;;;20.42;;
11531;SDS011;5822;51.000;5.874;2023-02-28T15:09:09;20.33;;;19.23;;
11531;SDS011;5822;51.000;5.874;2023-02-28T15:11:40;20.60;;;19.50;;
11531;SDS011;5822;51.000;5.874;2023-02-28T15:14:06;20.90;;;19.80;;
11531;SDS011;5822;51.000;5.874;2023-02-28T15:16:39;21.17;;;20.08;;
11531;SDS011;5822;51.000;5.874;2023-02-28T15:19:13;20.20;;;19.10;;
11531;SDS011;5822;51.000;5.874;2023-02-28T15:24:54;20.15;;;19.05;;
11531;SDS011;5822;51.000;5.874;2023-02-28T15:27:24;20.20;;;19.10;;
11531;SDS011;5822;51.000;5.874;2023-02-28T15:29:54;20.58;;;19.40;;
11531;SDS011;5822;51.000;5.874;2023-02-28T15:32:43;20.05;;;18.95;;
11531;SDS011;5822;51.000;5.874;2023-02-28T15:35:20;20.30;;;19.20;;
11531;SDS011;5822;51.000;5.874;2023-02-28T15:40:44;20.13;;;19.02;;
11531;SDS011;5822;51.000;5.874;2023-02-28T15:43:28;20.10;;;19.00;;
11531;SDS011;5822;51.000;5.874;2023-02-28T15:49:02;20.65;;;19.52;;
11531;SDS011;5822;51.000;5.874;2023-02-28T15:54:04;20.08;;;18.98;;
11531;SDS011;5822;51.000;5.874;2023-02-28T15:56:33;20.20;;;19.10;;
11531;SDS011;5822;51.000;5.874;2023-02-28T15:59:07;20.23;;;19.13;;
11531;SDS011;5822;51.000;5.874;2023-02-28T16:01:41;19.88;;;18.77;;
11531;SDS011;5822;51.000;5.874;2023-02-28T16:04:17;20.50;;;19.40;;
11531;SDS011;5822;51.000;5.874;2023-02-28T16:06:44;20.60;;;19.50;;
11531;SDS011;5822;51.000;5.874;2023-02-28T16:09:22;20.55;;;19.45;;
11531;SDS011;5822;51.000;5.874;2023-02-28T16:11:48;20.67;;;19.57;;
11531;SDS011;5822;51.000;5.874;2023-02-28T16:14:20;19.98;;;18.88;;
11531;SDS011;5822;51.000;5.874;2023-02-28T16:16:52;20.23;;;19.13;;
11531;SDS011;5822;51.000;5.874;2023-02-28T16:19:19;21.17;;;19.98;;
11531;SDS011;5822;51.000;5.874;2023-02-28T16:21:45;21.90;;;20.70;;
11531;SDS011;5822;51.000;5.874;2023-02-28T16:24:11;21.45;;;20.25;;
11531;SDS011;5822;51.000;5.874;2023-02-28T16:26:38;21.23;;;20.02;;
11531;SDS011;5822;51.000;5.874;2023-02-28T16:29:06;21.10;;;20.00;;
11531;SDS011;5822;51.000;5.874;2023-02-28T16:31:33;20.53;;;19.43;;
11531;SDS011;5822;51.000;5.874;2023-02-28T16:34:02;20.35;;;19.25;;
11531;SDS011;5822;51.000;5.874;2023-02-28T16:36:28;21.17;;;20.07;;
11531;SDS011;5822;51.000;5.874;2023-02-28T16:38:54;20.70;;;19.60;;
11531;SDS011;5822;51.000;5.874;2023-02-28T16:41:21;20.23;;;19.13;;
11531;SDS011;5822;51.000;5.874;2023-02-28T16:43:51;20.27;;;19.17;;
11531;SDS011;5822;51.000;5.874;2023-02-28T16:46:19;20.25;;;19.15;;
11531;SDS011;5822;51.000;5.874;2023-02-28T16:48:46;20.98;;;19.80;;
11531;SDS011;5822;51.000;5.874;2023-02-28T16:51:16;20.60;;;19.50;;
11531;SDS011;5822;51.000;5.874;2023-02-28T16:53:42;18.70;;;17.70;;
11531;SDS011;5822;51.000;5.874;2023-02-28T16:56:14;18.70;;;17.70;;
11531;SDS011;5822;51.000;5.874;2023-02-28T16:58:48;18.55;;;17.55;;
11531;SDS011;5822;51.000;5.874;2023-02-28T17:01:15;19.20;;;18.10;;
11531;SDS011;5822;51.000;5.874;2023-02-28T17:03:42;20.40;;;19.25;;
11531;SDS011;5822;51.000;5.874;2023-02-28T17:06:15;21.20;;;20.00;;
11531;SDS011;5822;51.000;5.874;2023-02-28T17:08:47;20.15;;;19.05;;
11531;SDS011;5822;51.000;5.874;2023-02-28T17:11:14;20.95;;;19.75;;
11531;SDS011;5822;51.000;5.874;2023-02-28T17:13:39;20.70;;;19.60;;
11531;SDS011;5822;51.000;5.874;2023-02-28T17:16:05;21.05;;;19.95;;
11531;SDS011;5822;51.000;5.874;2023-02-28T17:18:35;20.63;;;19.52;;
11531;SDS011;5822;51.000;5.874;2023-02-28T17:21:01;20.43;;;19.33;;
11531;SDS011;5822;51.000;5.874;2023-02-28T17:23:27;20.95;;;19.85;;
11531;SDS011;5822;51.000;5.874;2023-02-28T17:25:52;21.25;;;20.05;;
11531;SDS011;5822;51.000;5.874;2023-02-28T17:28:19;21.05;;;19.95;;
11531;SDS011;5822;51.000;5.874;2023-02-28T17:30:46;21.17;;;20.08;;
11531;SDS011;5822;51.000;5.874;2023-02-28T17:33:13;22.13;;;20.93;;
11531;SDS011;5822;51.000;5.874;2023-02-28T17:35:39;22.25;;;21.05;;
11531;SDS011;5822;51.000;5.874;2023-02-28T17:38:07;21.92;;;20.73;;
11531;SDS011;5822;51.000;5.874;2023-02-28T17:40:40;23.13;;;21.92;;